createdAt,value
2019-02-20T00:00:09.598Z,6.92
2019-02-20T00:02:36.674Z,6.33
2019-02-20T00:05:03.545Z,7.35
2019-02-20T00:07:30.436Z,7.25
2019-02-20T00:09:57.203Z,6.75
2019-02-20T00:12:23.719Z,7.22
2019-02-20T00:14:50.523Z,8.18
2019-02-20T00:17:17.329Z,5.65
2019-02-20T00:19:44.248Z,5.95
2019-02-20T00:22:11.016Z,6.30
2019-02-20T00:24:38.030Z,6.83
2019-02-20T00:27:04.618Z,6.50
2019-02-20T00:29:31.363Z,4.90
2019-02-20T00:31:58.227Z,5.40
2019-02-20T00:34:24.975Z,5.87
2019-02-20T00:36:51.598Z,5.67
2019-02-20T00:39:18.404Z,5.03
2019-02-20T00:41:45.625Z,5.25
2019-02-20T00:44:20.475Z,6.45
2019-02-20T00:46:49.372Z,5.50
2019-02-20T00:49:17.841Z,6.58
2019-02-20T00:51:46.307Z,5.60
2019-02-20T00:54:13.078Z,5.45
2019-02-20T00:56:39.839Z,5.30
2019-02-20T00:59:06.606Z,6.17
2019-02-20T01:01:33.224Z,5.10
2019-02-20T01:04:00.308Z,4.70
2019-02-20T01:06:27.158Z,4.60
2019-02-20T01:08:53.801Z,4.87
2019-02-20T01:11:20.518Z,4.20
2019-02-20T01:13:47.249Z,5.92
2019-02-20T01:16:13.907Z,5.03
2019-02-20T01:18:40.595Z,5.12
2019-02-20T01:21:07.431Z,4.87
2019-02-20T01:23:34.255Z,5.70
2019-02-20T01:26:01.097Z,4.97
2019-02-20T01:28:27.587Z,5.87
2019-02-20T01:30:54.466Z,4.80
2019-02-20T01:33:21.187Z,4.87
2019-02-20T01:35:48.068Z,5.05
2019-02-20T01:38:14.788Z,7.30
2019-02-20T01:40:41.526Z,5.35
2019-02-20T01:43:08.270Z,5.80
2019-02-20T01:45:34.733Z,4.92
2019-02-20T01:48:01.574Z,5.45
2019-02-20T01:50:28.183Z,5.10
2019-02-20T01:52:55.082Z,5.05
2019-02-20T01:55:21.652Z,5.60
2019-02-20T01:57:48.247Z,5.80
2019-02-20T02:00:15.064Z,5.10
2019-02-20T02:02:42.058Z,5.80
2019-02-20T02:05:14.853Z,4.85
2019-02-20T02:07:37.144Z,4.40
2019-02-20T02:10:06.145Z,5.35
2019-02-20T02:12:32.980Z,5.60
2019-02-20T02:14:59.423Z,5.28
2019-02-20T02:17:25.937Z,5.30
2019-02-20T02:19:52.856Z,5.55
2019-02-20T02:22:19.431Z,4.90
2019-02-20T02:24:45.882Z,5.58
2019-02-20T02:27:12.727Z,4.95
2019-02-20T02:29:39.372Z,4.80
2019-02-20T02:32:05.768Z,5.05
2019-02-20T02:34:32.211Z,5.08
2019-02-20T02:36:58.656Z,4.80
2019-02-20T02:39:25.229Z,5.70
2019-02-20T02:41:51.694Z,5.67
2019-02-20T02:44:18.256Z,5.50
2019-02-20T02:46:44.714Z,5.67
2019-02-20T02:49:11.184Z,6.08
2019-02-20T02:51:37.650Z,6.50
2019-02-20T02:54:04.225Z,5.15
2019-02-20T02:56:30.664Z,5.50
2019-02-20T02:58:57.138Z,6.87
2019-02-20T03:01:23.613Z,5.70
2019-02-20T03:03:50.101Z,6.00
2019-02-20T03:06:16.824Z,6.35
2019-02-20T03:08:43.272Z,7.58
2019-02-20T03:11:09.747Z,5.50
2019-02-20T03:13:36.193Z,7.17
2019-02-20T03:16:02.869Z,6.70
2019-02-20T03:18:29.329Z,6.28
2019-02-20T03:20:55.799Z,5.78
2019-02-20T03:23:22.264Z,6.37
2019-02-20T03:25:48.931Z,5.60
2019-02-20T03:28:15.385Z,5.67
2019-02-20T03:30:41.970Z,6.40
2019-02-20T03:33:08.522Z,7.35
2019-02-20T03:35:34.991Z,5.83
2019-02-20T03:38:01.549Z,6.80
2019-02-20T03:40:28.022Z,6.87
2019-02-20T03:42:54.576Z,6.05
2019-02-20T03:45:21.450Z,5.53
2019-02-20T03:47:48.002Z,7.10
2019-02-20T03:50:14.568Z,6.30
2019-02-20T03:52:41.034Z,6.28
2019-02-20T03:55:07.714Z,5.90
2019-02-20T03:57:34.364Z,6.00
2019-02-20T04:00:01.047Z,5.75
2019-02-20T04:02:27.533Z,6.85
2019-02-20T04:04:54.045Z,7.25
2019-02-20T04:07:20.793Z,7.78
2019-02-20T04:09:47.241Z,6.40
2019-02-20T04:12:13.731Z,6.80
2019-02-20T04:14:40.277Z,6.70
2019-02-20T04:17:06.852Z,5.45
2019-02-20T04:19:33.298Z,7.47
2019-02-20T04:21:59.772Z,5.97
2019-02-20T04:24:26.247Z,5.70
2019-02-20T04:26:52.956Z,6.53
2019-02-20T04:29:19.697Z,5.90
2019-02-20T04:31:46.321Z,6.35
2019-02-20T04:34:12.785Z,6.33
2019-02-20T04:36:39.361Z,6.65
2019-02-20T04:39:05.925Z,6.97
2019-02-20T04:41:32.360Z,7.12
2019-02-20T04:43:58.863Z,7.75
2019-02-20T04:46:25.605Z,7.60
2019-02-20T04:48:52.058Z,7.00
2019-02-20T04:51:18.605Z,6.00
2019-02-20T04:53:45.195Z,6.15
2019-02-20T04:56:11.765Z,6.92
2019-02-20T04:58:38.247Z,6.83
2019-02-20T05:01:05.085Z,6.67
2019-02-20T05:03:31.699Z,6.80
2019-02-20T05:05:58.178Z,7.35
2019-02-20T05:08:25.100Z,7.80
2019-02-20T05:10:51.729Z,7.10
2019-02-20T05:13:18.193Z,6.28
2019-02-20T05:15:44.999Z,6.85
2019-02-20T05:18:11.562Z,7.33
2019-02-20T05:20:38.032Z,8.88
2019-02-20T05:23:04.392Z,7.40
2019-02-20T05:25:30.957Z,7.55
2019-02-20T05:27:57.512Z,6.72
2019-02-20T05:30:24.105Z,7.85
2019-02-20T05:32:50.671Z,6.80
2019-02-20T05:35:17.149Z,6.35
2019-02-20T05:37:43.688Z,6.30
2019-02-20T05:40:10.341Z,8.98
2019-02-20T05:42:36.825Z,7.22
2019-02-20T05:45:04.277Z,7.85
2019-02-20T05:47:30.783Z,8.93
2019-02-20T05:49:57.220Z,7.83
2019-02-20T05:52:23.808Z,10.20
2019-02-20T05:54:50.363Z,8.25
2019-02-20T05:57:16.847Z,8.15
2019-02-20T05:59:43.321Z,6.90
2019-02-20T06:02:09.876Z,8.10
2019-02-20T06:04:36.431Z,8.28
2019-02-20T06:07:03.008Z,8.50
2019-02-20T06:09:29.451Z,8.30
2019-02-20T06:11:55.836Z,9.35
2019-02-20T06:14:22.666Z,11.53
2019-02-20T06:16:49.140Z,9.93
2019-02-20T06:19:15.693Z,8.95
2019-02-20T06:21:42.261Z,9.25
2019-02-20T06:24:08.920Z,9.10
2019-02-20T06:26:35.682Z,8.78
2019-02-20T06:29:02.134Z,9.10
2019-02-20T06:31:28.612Z,9.83
2019-02-20T06:33:55.080Z,8.73
2019-02-20T06:36:21.535Z,10.10
2019-02-20T06:38:48.106Z,10.60
2019-02-20T06:41:14.665Z,10.45
2019-02-20T06:43:41.140Z,9.33
2019-02-20T06:46:07.699Z,8.73
2019-02-20T06:48:34.178Z,9.30
2019-02-20T06:51:00.751Z,10.38
2019-02-20T06:53:27.233Z,9.50
2019-02-20T06:55:53.713Z,10.63
2019-02-20T06:58:20.177Z,11.25
2019-02-20T07:00:46.651Z,10.18
2019-02-20T07:03:13.132Z,10.60
2019-02-20T07:05:40.144Z,10.72
2019-02-20T07:08:13.341Z,11.03
2019-02-20T07:11:00.393Z,10.95
2019-02-20T07:13:38.994Z,11.80
2019-02-20T07:16:20.040Z,12.33
2019-02-20T07:18:50.318Z,12.80
2019-02-20T07:21:26.313Z,10.40
2019-02-20T07:24:17.266Z,11.80
2019-02-20T07:26:50.447Z,11.00
2019-02-20T07:29:41.688Z,12.05
2019-02-20T07:32:08.336Z,12.15
2019-02-20T07:34:34.820Z,12.70
2019-02-20T07:37:01.305Z,12.03
2019-02-20T07:39:27.756Z,13.80
2019-02-20T07:41:54.539Z,12.07
2019-02-20T07:44:21.101Z,12.40
2019-02-20T07:46:47.591Z,13.32
2019-02-20T07:49:14.325Z,13.55
2019-02-20T07:51:40.893Z,13.45
2019-02-20T07:54:07.484Z,11.90
2019-02-20T07:56:33.968Z,13.95
2019-02-20T07:59:00.700Z,12.37
2019-02-20T08:01:27.292Z,13.93
2019-02-20T08:03:53.761Z,13.62
2019-02-20T08:06:20.205Z,14.05
2019-02-20T08:08:46.681Z,13.78
2019-02-20T08:11:13.138Z,14.63
2019-02-20T08:13:39.717Z,15.15
2019-02-20T08:16:06.318Z,13.35
2019-02-20T08:18:32.790Z,13.38
2019-02-20T08:20:59.334Z,12.98
2019-02-20T08:23:25.904Z,15.45
2019-02-20T08:25:52.488Z,13.95
2019-02-20T08:28:19.048Z,13.80
2019-02-20T08:30:45.732Z,14.05
2019-02-20T08:33:12.309Z,14.75
2019-02-20T08:35:39.124Z,15.23
2019-02-20T08:38:05.683Z,15.75
2019-02-20T08:40:32.172Z,15.48
2019-02-20T08:42:58.721Z,15.57
2019-02-20T08:45:25.396Z,15.67
2019-02-20T08:47:51.753Z,14.63
2019-02-20T08:50:18.263Z,15.07
2019-02-20T08:52:44.728Z,16.10
2019-02-20T08:55:11.517Z,15.40
2019-02-20T08:57:37.989Z,17.85
2019-02-20T09:00:12.476Z,17.50
2019-02-20T09:02:39.119Z,17.73
2019-02-20T09:05:07.724Z,16.27
2019-02-20T09:07:34.190Z,18.92
2019-02-20T09:10:00.702Z,19.40
2019-02-20T09:12:27.416Z,18.80
2019-02-20T09:14:53.990Z,19.60
2019-02-20T09:17:20.732Z,16.77
2019-02-20T09:19:47.091Z,17.40
2019-02-20T09:22:13.688Z,17.73
2019-02-20T09:24:40.147Z,18.25
2019-02-20T09:27:06.629Z,18.47
2019-02-20T09:29:33.293Z,18.87
2019-02-20T09:32:00.033Z,20.23
2019-02-20T09:34:26.484Z,19.40
2019-02-20T09:36:52.968Z,22.00
2019-02-20T09:39:23.212Z,23.93
2019-02-20T09:41:49.609Z,24.23
2019-02-20T09:44:16.056Z,20.03
2019-02-20T09:46:42.821Z,22.90
2019-02-20T09:49:09.375Z,21.43
2019-02-20T09:51:35.857Z,22.37
2019-02-20T09:54:02.692Z,22.87
2019-02-20T09:56:29.468Z,21.57
2019-02-20T09:58:55.933Z,19.30
2019-02-20T10:01:22.499Z,20.90
2019-02-20T10:03:48.952Z,17.90
2019-02-20T10:06:15.350Z,19.30
2019-02-20T10:08:41.800Z,22.23
2019-02-20T10:11:08.388Z,19.70
2019-02-20T10:13:35.172Z,20.90
2019-02-20T10:16:01.729Z,20.00
2019-02-20T10:18:28.219Z,20.90
2019-02-20T10:20:54.680Z,20.20
2019-02-20T10:23:21.588Z,19.00
2019-02-20T10:25:48.133Z,20.57
2019-02-20T10:28:14.828Z,17.17
2019-02-20T10:30:43.004Z,19.67
2019-02-20T10:33:09.513Z,19.90
2019-02-20T10:35:36.215Z,18.53
2019-02-20T10:38:03.379Z,18.47
2019-02-20T10:40:30.020Z,18.63
2019-02-20T10:42:56.467Z,18.40
2019-02-20T10:45:23.202Z,18.00
2019-02-20T10:47:49.680Z,17.77
2019-02-20T10:50:16.287Z,17.80
2019-02-20T10:52:42.732Z,15.83
2019-02-20T10:55:09.940Z,14.07
2019-02-20T10:57:36.682Z,14.47
2019-02-20T11:00:24.249Z,12.50
2019-02-20T11:02:51.067Z,13.00
2019-02-20T11:05:18.021Z,11.63
2019-02-20T11:07:44.577Z,11.93
2019-02-20T11:10:11.650Z,13.10
2019-02-20T11:12:38.474Z,13.57
2019-02-20T11:15:06.358Z,12.30
2019-02-20T11:17:33.037Z,10.43
2019-02-20T11:19:59.563Z,11.00
2019-02-20T11:22:26.097Z,12.30
2019-02-20T11:24:53.797Z,11.27
2019-02-20T11:27:20.360Z,10.27
2019-02-20T11:29:46.809Z,9.97
2019-02-20T11:32:13.563Z,9.70
2019-02-20T11:34:40.239Z,11.10
2019-02-20T11:37:06.653Z,11.80
2019-02-20T11:39:37.723Z,12.60
2019-02-20T11:42:01.622Z,13.20
2019-02-20T11:44:28.393Z,13.30
2019-02-20T11:46:55.178Z,12.50
2019-02-20T11:49:22.756Z,13.43
2019-02-20T11:51:49.249Z,13.43
2019-02-20T11:54:15.810Z,10.77
2019-02-20T11:56:42.386Z,10.20
2019-02-20T11:59:08.864Z,9.40
2019-02-20T12:01:35.381Z,9.50
2019-02-20T12:04:01.912Z,9.53
2019-02-20T12:06:28.761Z,10.00
2019-02-20T12:08:55.727Z,8.47
2019-02-20T12:11:22.289Z,9.23
2019-02-20T12:13:49.149Z,10.63
2019-02-20T12:16:16.002Z,9.50
2019-02-20T12:18:42.785Z,7.53
2019-02-20T12:21:09.430Z,8.07
2019-02-20T12:23:36.814Z,7.30
2019-02-20T12:26:03.674Z,7.57
2019-02-20T12:28:30.261Z,8.13
2019-02-20T12:30:56.711Z,7.97
2019-02-20T12:33:23.293Z,8.03
2019-02-20T12:35:50.084Z,6.67
2019-02-20T12:38:16.568Z,6.63
2019-02-20T12:40:43.176Z,5.33
2019-02-20T12:43:09.633Z,6.70
2019-02-20T12:45:36.217Z,5.37
2019-02-20T12:48:02.755Z,6.67
2019-02-20T12:50:29.365Z,7.07
2019-02-20T12:52:55.707Z,6.00
2019-02-20T12:55:22.224Z,6.87
2019-02-20T12:57:48.945Z,7.53
2019-02-20T13:00:16.340Z,6.00
2019-02-20T13:02:42.809Z,6.30
2019-02-20T13:05:09.609Z,6.40
2019-02-20T13:07:36.433Z,5.07
2019-02-20T13:10:03.498Z,5.53
2019-02-20T13:12:30.519Z,4.73
2019-02-20T13:14:57.022Z,5.77
2019-02-20T13:17:23.587Z,5.33
2019-02-20T13:19:50.131Z,5.37
2019-02-20T13:22:16.838Z,4.70
2019-02-20T13:24:43.969Z,4.87
2019-02-20T13:27:10.505Z,4.17
2019-02-20T13:29:36.930Z,3.53
2019-02-20T13:32:03.508Z,3.97
2019-02-20T13:34:30.064Z,4.60
2019-02-20T13:36:56.544Z,5.83
2019-02-20T13:39:23.004Z,5.00
2019-02-20T13:41:49.482Z,4.20
2019-02-20T13:44:16.041Z,5.47
2019-02-20T13:46:42.736Z,5.50
2019-02-20T13:49:09.720Z,5.77
2019-02-20T13:51:36.636Z,5.20
2019-02-20T13:54:03.339Z,5.43
2019-02-20T13:56:29.978Z,5.30
2019-02-20T13:58:56.651Z,6.07
2019-02-20T14:01:23.200Z,5.13
2019-02-20T14:03:49.897Z,4.00
2019-02-20T14:06:16.451Z,4.60
2019-02-20T14:08:43.141Z,4.43
2019-02-20T14:11:10.009Z,4.80
2019-02-20T14:13:36.594Z,6.60
2019-02-20T14:16:03.374Z,7.07
2019-02-20T14:18:30.197Z,6.37
2019-02-20T14:20:56.656Z,6.47
2019-02-20T14:23:23.119Z,4.97
2019-02-20T14:25:49.582Z,4.17
2019-02-20T14:28:16.066Z,3.90
2019-02-20T14:30:42.825Z,3.70
2019-02-20T14:33:09.588Z,4.33
2019-02-20T14:35:36.043Z,4.23
2019-02-20T14:38:03.146Z,5.10
2019-02-20T14:40:29.870Z,4.50
2019-02-20T14:42:56.628Z,5.70
2019-02-20T14:45:23.119Z,5.13
2019-02-20T14:47:49.695Z,4.57
2019-02-20T14:50:16.573Z,4.60
2019-02-20T14:52:43.135Z,4.53
2019-02-20T14:55:10.132Z,4.87
2019-02-20T14:57:36.683Z,5.70
2019-02-20T15:00:13.665Z,5.40
2019-02-20T15:02:40.513Z,4.40
2019-02-20T15:05:07.104Z,5.27
2019-02-20T15:07:33.923Z,5.27
2019-02-20T15:10:00.335Z,5.70
2019-02-20T15:12:27.169Z,5.50
2019-02-20T15:14:53.950Z,4.87
2019-02-20T15:17:20.822Z,5.63
2019-02-20T15:19:47.285Z,4.50
2019-02-20T15:22:13.761Z,5.17
2019-02-20T15:24:40.328Z,4.73
2019-02-20T15:27:07.661Z,5.53
2019-02-20T15:29:34.210Z,5.20
2019-02-20T15:32:01.185Z,5.10
2019-02-20T15:34:27.641Z,5.33
2019-02-20T15:36:54.510Z,5.03
2019-02-20T15:39:21.328Z,6.00
2019-02-20T15:41:48.117Z,6.40
2019-02-20T15:44:14.791Z,5.43
2019-02-20T15:46:41.715Z,5.57
2019-02-20T15:49:08.278Z,4.57
2019-02-20T15:51:35.041Z,5.87
2019-02-20T15:54:01.861Z,5.20
2019-02-20T15:56:28.553Z,5.60
2019-02-20T15:58:55.109Z,6.17
2019-02-20T16:01:21.799Z,6.60
2019-02-20T16:03:48.259Z,6.10
2019-02-20T16:06:14.951Z,6.67
2019-02-20T16:08:41.717Z,5.20
2019-02-20T16:11:08.582Z,5.43
2019-02-20T16:13:35.321Z,6.30
2019-02-20T16:16:01.876Z,5.40
2019-02-20T16:18:28.376Z,5.42
2019-02-20T16:20:55.140Z,5.47
2019-02-20T16:23:21.622Z,5.70
2019-02-20T16:25:48.083Z,6.40
2019-02-20T16:28:15.144Z,6.45
2019-02-20T16:30:41.800Z,6.90
2019-02-20T16:33:08.599Z,8.00
2019-02-20T16:35:35.056Z,7.78
2019-02-20T16:38:01.678Z,7.75
2019-02-20T16:40:28.116Z,7.30
2019-02-20T16:42:54.816Z,8.80
2019-02-20T16:45:24.576Z,7.65
2019-02-20T16:47:52.053Z,7.43
2019-02-20T16:50:18.644Z,7.37
2019-02-20T16:52:45.429Z,7.62
2019-02-20T16:55:19.183Z,7.70
2019-02-20T16:57:40.569Z,7.25
2019-02-20T17:00:12.111Z,7.72
2019-02-20T17:02:38.772Z,8.78
2019-02-20T17:05:14.140Z,8.73
2019-02-20T17:07:36.710Z,8.48
2019-02-20T17:10:09.047Z,9.03
2019-02-20T17:12:35.608Z,8.65
2019-02-20T17:15:02.570Z,9.10
2019-02-20T17:17:29.132Z,8.85
2019-02-20T17:19:55.738Z,9.00
2019-02-20T17:22:22.592Z,8.35
2019-02-20T17:24:49.296Z,7.80
2019-02-20T17:27:15.957Z,7.75
2019-02-20T17:29:42.548Z,8.10
2019-02-20T17:32:09.205Z,7.30
2019-02-20T17:34:35.917Z,8.60
2019-02-20T17:37:02.581Z,8.43
2019-02-20T17:39:29.185Z,8.10
2019-02-20T17:41:55.878Z,8.43
2019-02-20T17:44:22.424Z,8.93
2019-02-20T17:46:48.879Z,9.10
2019-02-20T17:49:15.380Z,10.35
2019-02-20T17:51:41.832Z,8.85
2019-02-20T17:54:08.621Z,8.48
2019-02-20T17:56:35.189Z,10.23
2019-02-20T17:59:01.748Z,8.43
2019-02-20T18:01:28.248Z,10.35
2019-02-20T18:03:54.723Z,9.35
2019-02-20T18:06:21.680Z,7.75
2019-02-20T18:08:48.338Z,9.33
2019-02-20T18:11:15.006Z,8.85
2019-02-20T18:13:41.761Z,8.65
2019-02-20T18:16:08.455Z,10.98
2019-02-20T18:18:35.016Z,10.00
2019-02-20T18:21:01.615Z,10.10
2019-02-20T18:23:28.117Z,11.40
2019-02-20T18:25:54.694Z,9.38
2019-02-20T18:28:24.437Z,8.90
2019-02-20T18:30:49.648Z,9.15
2019-02-20T18:33:16.314Z,8.78
2019-02-20T18:35:43.008Z,9.00
2019-02-20T18:38:09.716Z,9.43
2019-02-20T18:40:36.138Z,8.20
2019-02-20T18:43:02.847Z,8.15
2019-02-20T18:45:29.623Z,22.17
2019-02-20T18:47:56.225Z,24.40
2019-02-20T18:50:22.870Z,11.65
2019-02-20T18:52:49.644Z,9.35
2019-02-20T18:55:16.323Z,9.13
2019-02-20T18:57:43.025Z,9.33
2019-02-20T19:00:14.336Z,10.53
2019-02-20T19:02:41.191Z,10.30
2019-02-20T19:05:08.668Z,10.40
2019-02-20T19:07:35.126Z,11.18
2019-02-20T19:10:04.017Z,9.98
2019-02-20T19:12:40.553Z,10.53
2019-02-20T19:15:17.095Z,9.90
2019-02-20T19:18:18.692Z,9.30
2019-02-20T19:20:54.826Z,10.70
2019-02-20T19:23:34.171Z,10.20
2019-02-20T19:26:27.508Z,11.33
2019-02-20T19:29:14.394Z,10.43
2019-02-20T19:32:13.708Z,10.55
2019-02-20T19:34:52.997Z,11.97
2019-02-20T19:37:32.439Z,11.15
2019-02-20T19:40:33.373Z,11.55
2019-02-20T19:43:27.400Z,10.65
2019-02-20T19:46:02.451Z,11.55
2019-02-20T19:48:49.474Z,11.35
2019-02-20T19:51:48.522Z,9.48
2019-02-20T19:54:27.603Z,10.43
2019-02-20T19:57:09.331Z,10.20
2019-02-20T19:59:39.619Z,9.25
2019-02-20T20:02:15.990Z,9.95
2019-02-20T20:05:01.433Z,10.32
2019-02-20T20:07:54.349Z,10.38
2019-02-20T20:10:41.397Z,11.88
2019-02-20T20:13:26.822Z,13.88
2019-02-20T20:16:06.033Z,10.45
2019-02-20T20:18:42.070Z,10.53
2019-02-20T20:21:30.342Z,10.85
2019-02-20T20:24:22.788Z,11.97
2019-02-20T20:27:13.012Z,12.00
2019-02-20T20:29:43.522Z,11.28
2019-02-20T20:32:52.952Z,10.00
2019-02-20T20:35:19.383Z,9.48
2019-02-20T20:37:52.522Z,10.78
2019-02-20T20:40:32.054Z,9.10
2019-02-20T20:43:05.254Z,10.00
2019-02-20T20:45:50.754Z,9.50
2019-02-20T20:48:27.432Z,9.78
2019-02-20T20:51:20.453Z,11.03
2019-02-20T20:54:02.743Z,9.63
2019-02-20T20:56:57.595Z,10.03
2019-02-20T20:59:35.244Z,9.98
2019-02-20T21:02:06.036Z,9.90
2019-02-20T21:04:42.185Z,11.28
2019-02-20T21:07:30.465Z,16.32
2019-02-20T21:10:00.851Z,16.45
2019-02-20T21:12:34.035Z,20.12
2019-02-20T21:15:20.904Z,15.15
2019-02-20T21:18:21.071Z,12.85
2019-02-20T21:21:12.704Z,12.45
2019-02-20T21:23:49.157Z,11.35
2019-02-20T21:26:31.645Z,13.28
2019-02-20T21:29:37.928Z,13.22
2019-02-20T21:32:08.199Z,10.98
2019-02-20T21:34:41.248Z,10.68
2019-02-20T21:37:30.942Z,11.85
2019-02-20T21:40:01.329Z,12.35
2019-02-20T21:42:46.277Z,11.80
2019-02-20T21:45:40.542Z,11.08
2019-02-20T21:48:25.994Z,11.75
2019-02-20T21:50:56.376Z,11.00
2019-02-20T21:53:29.486Z,10.30
2019-02-20T21:56:14.713Z,10.70
2019-02-20T21:59:07.380Z,10.38
2019-02-20T22:02:10.677Z,10.18
2019-02-20T22:04:52.717Z,10.85
2019-02-20T22:07:54.531Z,10.70
2019-02-20T22:10:45.716Z,9.55
2019-02-20T22:13:22.065Z,9.58
2019-02-20T22:16:01.400Z,9.25
2019-02-20T22:18:37.653Z,9.88
2019-02-20T22:21:17.209Z,10.45
2019-02-20T22:23:47.464Z,10.68
2019-02-20T22:26:23.538Z,12.73
2019-02-20T22:28:56.579Z,10.72
2019-02-20T22:31:46.218Z,10.88
2019-02-20T22:34:31.684Z,9.85
2019-02-20T22:37:11.044Z,9.45
2019-02-20T22:39:44.333Z,9.03
2019-02-20T22:42:33.023Z,11.73
2019-02-20T22:45:12.037Z,12.00
2019-02-20T22:48:03.238Z,11.65
2019-02-20T22:50:48.517Z,10.90
2019-02-20T22:53:41.578Z,11.93
2019-02-20T22:56:17.596Z,11.43
2019-02-20T22:58:49.972Z,10.25
2019-02-20T23:01:37.736Z,12.65
2019-02-20T23:04:13.956Z,11.28
2019-02-20T23:06:50.085Z,11.70
2019-02-20T23:09:29.408Z,11.65
2019-02-20T23:12:03.369Z,12.65
2019-02-20T23:14:53.386Z,12.50
2019-02-20T23:17:20.048Z,12.30
2019-02-20T23:19:46.501Z,12.28
2019-02-20T23:22:13.067Z,11.78
2019-02-20T23:24:41.946Z,11.83
2019-02-20T23:27:07.805Z,13.10
2019-02-20T23:29:34.271Z,11.78
2019-02-20T23:32:00.751Z,11.85
2019-02-20T23:34:27.308Z,11.40
2019-02-20T23:36:54.081Z,12.90
2019-02-20T23:39:20.558Z,12.65
2019-02-20T23:41:47.303Z,11.28
2019-02-20T23:44:13.855Z,11.97
2019-02-20T23:46:40.353Z,10.78
2019-02-20T23:49:06.880Z,12.40
2019-02-20T23:51:33.661Z,11.78
2019-02-20T23:54:00.477Z,11.68
2019-02-20T23:56:26.952Z,11.65
2019-02-20T23:58:53.565Z,11.63
